sensor_id;sensor_type;location;lat;lon;timestamp;P1;durP1;ratioP1;P2;durP2;ratioP2
25249;SDS011;13201;51.148;13.738;2023-02-28T00:00:12;5.13;;;3.10;;
25249;SDS011;13201;51.148;13.738;2023-02-28T00:02:40;5.07;;;2.88;;
25249;SDS011;13201;51.148;13.738;2023-02-28T00:05:07;6.03;;;3.13;;
25249;SDS011;13201;51.148;13.738;2023-02-28T00:07:34;7.00;;;2.95;;
25249;SDS011;13201;51.148;13.738;2023-02-28T00:10:00;5.90;;;2.92;;
25249;SDS011;13201;51.148;13.738;2023-02-28T00:12:26;7.77;;;2.90;;
25249;SDS011;13201;51.148;13.738;2023-02-28T00:14:52;7.93;;;3.20;;
25249;SDS011;13201;51.148;13.738;2023-02-28T00:17:18;6.07;;;3.13;;
25249;SDS011;13201;51.148;13.738;2023-02-28T00:19:49;5.95;;;3.15;;
25249;SDS011;13201;51.148;13.738;2023-02-28T00:22:16;6.88;;;2.88;;
25249;SDS011;13201;51.148;13.738;2023-02-28T00:24:43;7.63;;;3.03;;
25249;SDS011;13201;51.148;13.738;2023-02-28T00:27:09;4.40;;;1.90;;
25249;SDS011;13201;51.148;13.738;2023-02-28T00:29:35;5.93;;;2.50;;
25249;SDS011;13201;51.148;13.738;2023-02-28T00:32:01;4.75;;;2.47;;
25249;SDS011;13201;51.148;13.738;2023-02-28T00:34:27;7.53;;;3.40;;
25249;SDS011;13201;51.148;13.738;2023-02-28T00:36:53;7.45;;;2.58;;
25249;SDS011;13201;51.148;13.738;2023-02-28T00:39:20;6.03;;;2.70;;
25249;SDS011;13201;51.148;13.738;2023-02-28T00:41:46;3.92;;;2.50;;
25249;SDS011;13201;51.148;13.738;2023-02-28T00:44:12;5.70;;;2.38;;
25249;SDS011;13201;51.148;13.738;2023-02-28T00:46:37;5.68;;;2.53;;
25249;SDS011;13201;51.148;13.738;2023-02-28T00:49:03;4.65;;;2.42;;
25249;SDS011;13201;51.148;13.738;2023-02-28T00:51:29;5.78;;;2.35;;
25249;SDS011;13201;51.148;13.738;2023-02-28T00:53:55;5.13;;;2.13;;
25249;SDS011;13201;51.148;13.738;2023-02-28T00:56:20;5.70;;;2.42;;
25249;SDS011;13201;51.148;13.738;2023-02-28T00:58:46;6.75;;;2.95;;
25249;SDS011;13201;51.148;13.738;2023-02-28T01:01:12;4.97;;;2.40;;
25249;SDS011;13201;51.148;13.738;2023-02-28T01:03:37;6.85;;;2.75;;
25249;SDS011;13201;51.148;13.738;2023-02-28T01:30:56;4.78;;;2.42;;
25249;SDS011;13201;51.148;13.738;2023-02-28T01:33:22;4.87;;;2.63;;
25249;SDS011;13201;51.148;13.738;2023-02-28T01:35:48;5.87;;;2.70;;
25249;SDS011;13201;51.148;13.738;2023-02-28T01:38:14;5.40;;;2.70;;
25249;SDS011;13201;51.148;13.738;2023-02-28T01:40:39;4.15;;;2.15;;
25249;SDS011;13201;51.148;13.738;2023-02-28T01:43:22;6.22;;;2.70;;
25249;SDS011;13201;51.148;13.738;2023-02-28T01:45:52;4.43;;;2.50;;
25249;SDS011;13201;51.148;13.738;2023-02-28T01:48:19;6.10;;;2.53;;
25249;SDS011;13201;51.148;13.738;2023-02-28T01:50:51;5.97;;;2.47;;
25249;SDS011;13201;51.148;13.738;2023-02-28T01:53:18;5.88;;;2.83;;
25249;SDS011;13201;51.148;13.738;2023-02-28T01:55:48;5.22;;;2.28;;
25249;SDS011;13201;51.148;13.738;2023-02-28T01:58:15;7.13;;;2.47;;
25249;SDS011;13201;51.148;13.738;2023-02-28T02:00:41;5.30;;;2.50;;
25249;SDS011;13201;51.148;13.738;2023-02-28T02:03:12;4.97;;;2.60;;
25249;SDS011;13201;51.148;13.738;2023-02-28T02:05:40;5.68;;;2.22;;
25249;SDS011;13201;51.148;13.738;2023-02-28T02:08:10;5.10;;;2.67;;
25249;SDS011;13201;51.148;13.738;2023-02-28T02:11:12;5.05;;;2.42;;
25249;SDS011;13201;51.148;13.738;2023-02-28T02:16:31;4.07;;;2.30;;
25249;SDS011;13201;51.148;13.738;2023-02-28T02:22:25;4.25;;;2.25;;
25249;SDS011;13201;51.148;13.738;2023-02-28T02:30:32;3.63;;;2.40;;
25249;SDS011;13201;51.148;13.738;2023-02-28T02:46:19;3.92;;;2.40;;
25249;SDS011;13201;51.148;13.738;2023-02-28T02:48:46;7.57;;;2.80;;
25249;SDS011;13201;51.148;13.738;2023-02-28T02:51:15;4.80;;;2.47;;
25249;SDS011;13201;51.148;13.738;2023-02-28T02:53:51;5.45;;;2.78;;
25249;SDS011;13201;51.148;13.738;2023-02-28T02:56:25;6.95;;;2.50;;
25249;SDS011;13201;51.148;13.738;2023-02-28T02:58:54;5.18;;;2.50;;
25249;SDS011;13201;51.148;13.738;2023-02-28T03:01:26;4.45;;;2.42;;
25249;SDS011;13201;51.148;13.738;2023-02-28T03:04:18;7.38;;;2.47;;
25249;SDS011;13201;51.148;13.738;2023-02-28T03:06:43;3.33;;;2.05;;
25249;SDS011;13201;51.148;13.738;2023-02-28T03:09:09;5.43;;;2.57;;
25249;SDS011;13201;51.148;13.738;2023-02-28T03:11:35;5.60;;;2.75;;
25249;SDS011;13201;51.148;13.738;2023-02-28T03:16:45;5.53;;;2.72;;
25249;SDS011;13201;51.148;13.738;2023-02-28T03:24:33;5.78;;;2.33;;
25249;SDS011;13201;51.148;13.738;2023-02-28T03:27:11;4.13;;;2.42;;
25249;SDS011;13201;51.148;13.738;2023-02-28T03:33:14;8.27;;;2.85;;
25249;SDS011;13201;51.148;13.738;2023-02-28T03:36:01;9.57;;;3.00;;
25249;SDS011;13201;51.148;13.738;2023-02-28T03:38:34;7.00;;;2.83;;
25249;SDS011;13201;51.148;13.738;2023-02-28T03:41:06;5.93;;;2.85;;
25249;SDS011;13201;51.148;13.738;2023-02-28T03:43:50;6.65;;;2.53;;
25249;SDS011;13201;51.148;13.738;2023-02-28T03:46:28;6.68;;;2.75;;
25249;SDS011;13201;51.148;13.738;2023-02-28T03:49:11;7.55;;;3.30;;
25249;SDS011;13201;51.148;13.738;2023-02-28T03:51:42;6.93;;;2.78;;
25249;SDS011;13201;51.148;13.738;2023-02-28T03:54:12;5.70;;;2.47;;
25249;SDS011;13201;51.148;13.738;2023-02-28T03:56:48;6.57;;;2.85;;
25249;SDS011;13201;51.148;13.738;2023-02-28T03:59:28;6.72;;;3.08;;
25249;SDS011;13201;51.148;13.738;2023-02-28T04:02:06;5.07;;;2.42;;
25249;SDS011;13201;51.148;13.738;2023-02-28T04:04:33;6.72;;;3.08;;
25249;SDS011;13201;51.148;13.738;2023-02-28T04:07:06;5.00;;;2.92;;
25249;SDS011;13201;51.148;13.738;2023-02-28T04:09:33;5.95;;;2.65;;
25249;SDS011;13201;51.148;13.738;2023-02-28T04:11:59;6.18;;;2.40;;
25249;SDS011;13201;51.148;13.738;2023-02-28T04:14:25;5.47;;;2.85;;
25249;SDS011;13201;51.148;13.738;2023-02-28T04:16:51;6.07;;;2.53;;
25249;SDS011;13201;51.148;13.738;2023-02-28T04:19:17;6.30;;;2.60;;
25249;SDS011;13201;51.148;13.738;2023-02-28T04:21:44;4.70;;;2.53;;
25249;SDS011;13201;51.148;13.738;2023-02-28T04:24:14;6.18;;;3.17;;
25249;SDS011;13201;51.148;13.738;2023-02-28T04:26:43;6.65;;;2.92;;
25249;SDS011;13201;51.148;13.738;2023-02-28T04:29:18;5.68;;;3.45;;
25249;SDS011;13201;51.148;13.738;2023-02-28T04:31:49;9.40;;;3.15;;
25249;SDS011;13201;51.148;13.738;2023-02-28T04:34:15;6.53;;;3.30;;
25249;SDS011;13201;51.148;13.738;2023-02-28T04:36:41;5.07;;;2.87;;
25249;SDS011;13201;51.148;13.738;2023-02-28T04:39:07;6.20;;;3.30;;
25249;SDS011;13201;51.148;13.738;2023-02-28T04:41:34;6.20;;;3.40;;
25249;SDS011;13201;51.148;13.738;2023-02-28T04:44:00;8.37;;;3.37;;
25249;SDS011;13201;51.148;13.738;2023-02-28T04:46:26;6.90;;;3.20;;
25249;SDS011;13201;51.148;13.738;2023-02-28T04:48:51;7.67;;;3.10;;
25249;SDS011;13201;51.148;13.738;2023-02-28T04:51:18;7.47;;;2.95;;
25249;SDS011;13201;51.148;13.738;2023-02-28T04:53:44;8.47;;;2.53;;
25249;SDS011;13201;51.148;13.738;2023-02-28T04:56:12;6.93;;;2.60;;
25249;SDS011;13201;51.148;13.738;2023-02-28T04:58:40;7.57;;;3.05;;
25249;SDS011;13201;51.148;13.738;2023-02-28T05:01:07;5.20;;;2.50;;
25249;SDS011;13201;51.148;13.738;2023-02-28T05:03:41;6.82;;;3.33;;
25249;SDS011;13201;51.148;13.738;2023-02-28T05:06:10;5.97;;;3.03;;
25249;SDS011;13201;51.148;13.738;2023-02-28T05:08:37;6.20;;;2.78;;
25249;SDS011;13201;51.148;13.738;2023-02-28T05:11:03;5.90;;;2.88;;
25249;SDS011;13201;51.148;13.738;2023-02-28T05:13:31;5.75;;;3.13;;
25249;SDS011;13201;51.148;13.738;2023-02-28T05:15:56;6.80;;;3.30;;
25249;SDS011;13201;51.148;13.738;2023-02-28T05:18:22;8.43;;;3.40;;
25249;SDS011;13201;51.148;13.738;2023-02-28T05:20:48;8.33;;;3.50;;
25249;SDS011;13201;51.148;13.738;2023-02-28T05:23:14;8.82;;;3.33;;
25249;SDS011;13201;51.148;13.738;2023-02-28T05:25:41;9.13;;;3.97;;
25249;SDS011;13201;51.148;13.738;2023-02-28T05:28:07;5.80;;;3.37;;
25249;SDS011;13201;51.148;13.738;2023-02-28T05:30:32;6.77;;;3.50;;
25249;SDS011;13201;51.148;13.738;2023-02-28T05:32:58;7.17;;;3.57;;
25249;SDS011;13201;51.148;13.738;2023-02-28T05:35:24;8.33;;;3.60;;
25249;SDS011;13201;51.148;13.738;2023-02-28T05:37:50;8.95;;;3.88;;
25249;SDS011;13201;51.148;13.738;2023-02-28T05:40:16;7.80;;;3.40;;
25249;SDS011;13201;51.148;13.738;2023-02-28T05:42:44;9.02;;;3.70;;
25249;SDS011;13201;51.148;13.738;2023-02-28T05:45:10;9.27;;;3.80;;
25249;SDS011;13201;51.148;13.738;2023-02-28T05:47:36;10.63;;;4.00;;
25249;SDS011;13201;51.148;13.738;2023-02-28T05:50:02;9.70;;;3.97;;
25249;SDS011;13201;51.148;13.738;2023-02-28T05:52:28;7.35;;;3.70;;
25249;SDS011;13201;51.148;13.738;2023-02-28T05:54:55;8.45;;;4.05;;
25249;SDS011;13201;51.148;13.738;2023-02-28T05:57:21;6.60;;;3.77;;
25249;SDS011;13201;51.148;13.738;2023-02-28T05:59:47;8.43;;;4.18;;
25249;SDS011;13201;51.148;13.738;2023-02-28T06:02:13;9.47;;;4.60;;
25249;SDS011;13201;51.148;13.738;2023-02-28T06:04:41;9.13;;;4.38;;
25249;SDS011;13201;51.148;13.738;2023-02-28T06:07:07;8.75;;;4.18;;
25249;SDS011;13201;51.148;13.738;2023-02-28T06:09:33;9.55;;;4.25;;
25249;SDS011;13201;51.148;13.738;2023-02-28T06:12:00;10.70;;;4.00;;
25249;SDS011;13201;51.148;13.738;2023-02-28T06:14:28;7.50;;;4.03;;
25249;SDS011;13201;51.148;13.738;2023-02-28T06:16:56;9.70;;;4.30;;
25249;SDS011;13201;51.148;13.738;2023-02-28T06:19:22;8.07;;;4.00;;
25249;SDS011;13201;51.148;13.738;2023-02-28T06:21:50;8.65;;;4.50;;
25249;SDS011;13201;51.148;13.738;2023-02-28T06:24:17;9.68;;;4.03;;
25249;SDS011;13201;51.148;13.738;2023-02-28T06:29:10;7.30;;;3.40;;
25249;SDS011;13201;51.148;13.738;2023-02-28T06:31:35;13.13;;;4.60;;
25249;SDS011;13201;51.148;13.738;2023-02-28T06:34:01;8.07;;;3.93;;
25249;SDS011;13201;51.148;13.738;2023-02-28T06:36:27;7.83;;;3.57;;
25249;SDS011;13201;51.148;13.738;2023-02-28T06:38:53;10.33;;;3.37;;
25249;SDS011;13201;51.148;13.738;2023-02-28T06:41:20;14.02;;;5.00;;
25249;SDS011;13201;51.148;13.738;2023-02-28T06:43:49;15.90;;;6.60;;
25249;SDS011;13201;51.148;13.738;2023-02-28T06:46:15;13.60;;;6.87;;
25249;SDS011;13201;51.148;13.738;2023-02-28T06:48:42;15.53;;;8.73;;
25249;SDS011;13201;51.148;13.738;2023-02-28T06:51:13;18.92;;;8.88;;
25249;SDS011;13201;51.148;13.738;2023-02-28T06:53:41;16.13;;;8.82;;
25249;SDS011;13201;51.148;13.738;2023-02-28T06:56:07;31.17;;;12.30;;
25249;SDS011;13201;51.148;13.738;2023-02-28T06:58:35;19.50;;;9.13;;
25249;SDS011;13201;51.148;13.738;2023-02-28T07:01:01;15.97;;;8.20;;
25249;SDS011;13201;51.148;13.738;2023-02-28T07:03:28;15.57;;;7.35;;
25249;SDS011;13201;51.148;13.738;2023-02-28T07:05:53;11.87;;;6.73;;
25249;SDS011;13201;51.148;13.738;2023-02-28T07:08:21;16.35;;;7.55;;
25249;SDS011;13201;51.148;13.738;2023-02-28T07:10:52;24.90;;;8.70;;
25249;SDS011;13201;51.148;13.738;2023-02-28T07:13:18;35.88;;;10.75;;
25249;SDS011;13201;51.148;13.738;2023-02-28T07:15:44;25.23;;;9.20;;
25249;SDS011;13201;51.148;13.738;2023-02-28T07:18:17;23.70;;;8.55;;
25249;SDS011;13201;51.148;13.738;2023-02-28T07:20:43;21.70;;;8.73;;
25249;SDS011;13201;51.148;13.738;2023-02-28T07:23:08;27.65;;;8.80;;
25249;SDS011;13201;51.148;13.738;2023-02-28T07:25:34;27.40;;;9.20;;
25249;SDS011;13201;51.148;13.738;2023-02-28T07:27:59;24.87;;;8.70;;
25249;SDS011;13201;51.148;13.738;2023-02-28T07:30:25;21.92;;;8.93;;
25249;SDS011;13201;51.148;13.738;2023-02-28T07:32:51;19.30;;;7.93;;
25249;SDS011;13201;51.148;13.738;2023-02-28T07:35:17;15.53;;;6.77;;
25249;SDS011;13201;51.148;13.738;2023-02-28T07:37:43;16.92;;;6.45;;
25249;SDS011;13201;51.148;13.738;2023-02-28T07:40:10;12.70;;;5.53;;
25249;SDS011;13201;51.148;13.738;2023-02-28T07:42:36;11.15;;;5.35;;
25249;SDS011;13201;51.148;13.738;2023-02-28T07:47:29;13.55;;;6.43;;
25249;SDS011;13201;51.148;13.738;2023-02-28T07:49:55;14.37;;;6.27;;
25249;SDS011;13201;51.148;13.738;2023-02-28T07:52:21;15.40;;;6.63;;
25249;SDS011;13201;51.148;13.738;2023-02-28T07:54:48;11.95;;;5.95;;
25249;SDS011;13201;51.148;13.738;2023-02-28T07:57:14;13.30;;;5.22;;
25249;SDS011;13201;51.148;13.738;2023-02-28T07:59:40;11.52;;;5.35;;
25249;SDS011;13201;51.148;13.738;2023-02-28T08:02:06;11.67;;;5.80;;
25249;SDS011;13201;51.148;13.738;2023-02-28T08:04:40;11.15;;;5.43;;
25249;SDS011;13201;51.148;13.738;2023-02-28T08:07:06;11.97;;;5.17;;
25249;SDS011;13201;51.148;13.738;2023-02-28T08:09:32;10.25;;;4.95;;
25249;SDS011;13201;51.148;13.738;2023-02-28T08:11:59;9.93;;;5.43;;
25249;SDS011;13201;51.148;13.738;2023-02-28T08:14:26;12.10;;;4.73;;
25249;SDS011;13201;51.148;13.738;2023-02-28T08:16:51;11.15;;;4.50;;
25249;SDS011;13201;51.148;13.738;2023-02-28T08:19:17;12.77;;;4.60;;
25249;SDS011;13201;51.148;13.738;2023-02-28T08:21:43;7.57;;;4.00;;
25249;SDS011;13201;51.148;13.738;2023-02-28T08:24:08;11.30;;;4.63;;
25249;SDS011;13201;51.148;13.738;2023-02-28T08:26:34;21.73;;;9.50;;
25249;SDS011;13201;51.148;13.738;2023-02-28T08:29:00;13.60;;;5.47;;
25249;SDS011;13201;51.148;13.738;2023-02-28T08:31:25;14.60;;;6.50;;
25249;SDS011;13201;51.148;13.738;2023-02-28T08:33:51;15.73;;;7.03;;
25249;SDS011;13201;51.148;13.738;2023-02-28T08:36:18;9.52;;;4.88;;
25249;SDS011;13201;51.148;13.738;2023-02-28T08:38:44;10.65;;;4.25;;
25249;SDS011;13201;51.148;13.738;2023-02-28T08:41:11;10.43;;;4.68;;
25249;SDS011;13201;51.148;13.738;2023-02-28T08:43:38;11.77;;;4.47;;
25249;SDS011;13201;51.148;13.738;2023-02-28T08:48:31;17.15;;;4.78;;
25249;SDS011;13201;51.148;13.738;2023-02-28T08:50:59;12.88;;;4.55;;
25249;SDS011;13201;51.148;13.738;2023-02-28T08:53:32;7.93;;;4.70;;
25249;SDS011;13201;51.148;13.738;2023-02-28T08:56:05;8.63;;;4.50;;
25249;SDS011;13201;51.148;13.738;2023-02-28T08:58:35;10.73;;;4.30;;
25249;SDS011;13201;51.148;13.738;2023-02-28T09:01:07;9.50;;;4.00;;
25249;SDS011;13201;51.148;13.738;2023-02-28T09:03:36;10.13;;;4.55;;
25249;SDS011;13201;51.148;13.738;2023-02-28T09:06:02;11.63;;;5.13;;
25249;SDS011;13201;51.148;13.738;2023-02-28T09:10:56;16.92;;;7.30;;
25249;SDS011;13201;51.148;13.738;2023-02-28T09:15:49;47.10;;;14.02;;
25249;SDS011;13201;51.148;13.738;2023-02-28T09:18:14;33.90;;;12.43;;
25249;SDS011;13201;51.148;13.738;2023-02-28T09:20:40;24.15;;;8.77;;
25249;SDS011;13201;51.148;13.738;2023-02-28T09:25:35;9.43;;;4.85;;
25249;SDS011;13201;51.148;13.738;2023-02-28T09:28:01;10.32;;;4.05;;
25249;SDS011;13201;51.148;13.738;2023-02-28T09:30:27;7.85;;;4.07;;
25249;SDS011;13201;51.148;13.738;2023-02-28T09:32:53;11.52;;;4.55;;
25249;SDS011;13201;51.148;13.738;2023-02-28T09:35:20;10.67;;;4.90;;
25249;SDS011;13201;51.148;13.738;2023-02-28T09:37:48;9.23;;;3.95;;
25249;SDS011;13201;51.148;13.738;2023-02-28T09:40:16;8.32;;;4.35;;
25249;SDS011;13201;51.148;13.738;2023-02-28T09:42:45;12.45;;;4.40;;
25249;SDS011;13201;51.148;13.738;2023-02-28T09:45:19;9.43;;;4.07;;
25249;SDS011;13201;51.148;13.738;2023-02-28T09:47:59;8.70;;;4.22;;
25249;SDS011;13201;51.148;13.738;2023-02-28T09:50:36;8.35;;;4.00;;
25249;SDS011;13201;51.148;13.738;2023-02-28T09:53:11;7.95;;;4.18;;
25249;SDS011;13201;51.148;13.738;2023-02-28T09:55:44;12.65;;;4.70;;
25249;SDS011;13201;51.148;13.738;2023-02-28T09:58:48;8.05;;;4.00;;
25249;SDS011;13201;51.148;13.738;2023-02-28T10:01:12;7.35;;;3.83;;
25249;SDS011;13201;51.148;13.738;2023-02-28T10:06:17;7.32;;;4.35;;
25249;SDS011;13201;51.148;13.738;2023-02-28T10:11:21;7.07;;;3.70;;
25249;SDS011;13201;51.148;13.738;2023-02-28T10:14:01;8.75;;;4.18;;
25249;SDS011;13201;51.148;13.738;2023-02-28T10:19:05;7.82;;;3.75;;
25249;SDS011;13201;51.148;13.738;2023-02-28T10:21:55;7.38;;;3.90;;
25249;SDS011;13201;51.148;13.738;2023-02-28T10:24:32;8.15;;;4.13;;
25249;SDS011;13201;51.148;13.738;2023-02-28T10:27:01;7.85;;;4.35;;
25249;SDS011;13201;51.148;13.738;2023-02-28T10:29:47;8.77;;;4.53;;
25249;SDS011;13201;51.148;13.738;2023-02-28T10:32:16;7.53;;;4.43;;
25249;SDS011;13201;51.148;13.738;2023-02-28T10:34:44;7.65;;;4.35;;
25249;SDS011;13201;51.148;13.738;2023-02-28T10:37:15;9.52;;;4.30;;
25249;SDS011;13201;51.148;13.738;2023-02-28T10:39:43;9.50;;;4.57;;
25249;SDS011;13201;51.148;13.738;2023-02-28T10:42:27;7.75;;;4.53;;
25249;SDS011;13201;51.148;13.738;2023-02-28T10:45:14;11.25;;;5.15;;
25249;SDS011;13201;51.148;13.738;2023-02-28T10:50:35;9.00;;;4.75;;
25249;SDS011;13201;51.148;13.738;2023-02-28T10:58:42;9.95;;;5.35;;
25249;SDS011;13201;51.148;13.738;2023-02-28T11:03:43;9.85;;;5.40;;
25249;SDS011;13201;51.148;13.738;2023-02-28T11:06:19;10.23;;;5.20;;
25249;SDS011;13201;51.148;13.738;2023-02-28T11:08:49;9.15;;;5.25;;
25249;SDS011;13201;51.148;13.738;2023-02-28T11:11:20;12.32;;;5.07;;
25249;SDS011;13201;51.148;13.738;2023-02-28T11:13:48;10.57;;;5.43;;
25249;SDS011;13201;51.148;13.738;2023-02-28T11:16:17;9.93;;;5.15;;
25249;SDS011;13201;51.148;13.738;2023-02-28T11:18:50;11.10;;;5.50;;
25249;SDS011;13201;51.148;13.738;2023-02-28T11:21:28;12.45;;;6.18;;
25249;SDS011;13201;51.148;13.738;2023-02-28T11:24:00;10.93;;;5.47;;
25249;SDS011;13201;51.148;13.738;2023-02-28T11:26:50;12.90;;;6.00;;
25249;SDS011;13201;51.148;13.738;2023-02-28T11:29:23;10.10;;;5.53;;
25249;SDS011;13201;51.148;13.738;2023-02-28T11:34:44;10.40;;;4.72;;
25249;SDS011;13201;51.148;13.738;2023-02-28T11:37:13;12.80;;;5.68;;
25249;SDS011;13201;51.148;13.738;2023-02-28T11:39:43;12.50;;;5.68;;
25249;SDS011;13201;51.148;13.738;2023-02-28T11:45:03;15.05;;;5.38;;
25249;SDS011;13201;51.148;13.738;2023-02-28T11:50:42;10.02;;;5.25;;
25249;SDS011;13201;51.148;13.738;2023-02-28T11:56:38;10.90;;;5.55;;
25249;SDS011;13201;51.148;13.738;2023-02-28T12:07:12;13.18;;;6.43;;
25249;SDS011;13201;51.148;13.738;2023-02-28T12:23:55;10.88;;;5.85;;
25249;SDS011;13201;51.148;13.738;2023-02-28T12:26:41;16.23;;;6.47;;
25249;SDS011;13201;51.148;13.738;2023-02-28T12:32:09;12.90;;;6.43;;
25249;SDS011;13201;51.148;13.738;2023-02-28T12:34:39;14.32;;;6.40;;
25249;SDS011;13201;51.148;13.738;2023-02-28T12:37:14;12.18;;;6.05;;
25249;SDS011;13201;51.148;13.738;2023-02-28T12:39:54;12.30;;;6.03;;
25249;SDS011;13201;51.148;13.738;2023-02-28T12:42:28;13.13;;;6.32;;
25249;SDS011;13201;51.148;13.738;2023-02-28T12:44:58;11.80;;;6.38;;
25249;SDS011;13201;51.148;13.738;2023-02-28T12:47:26;12.82;;;6.07;;
25249;SDS011;13201;51.148;13.738;2023-02-28T12:50:13;10.57;;;5.90;;
25249;SDS011;13201;51.148;13.738;2023-02-28T12:58:20;13.52;;;6.78;;
25249;SDS011;13201;51.148;13.738;2023-02-28T13:09:16;13.07;;;6.75;;
25249;SDS011;13201;51.148;13.738;2023-02-28T13:11:49;11.75;;;6.25;;
25249;SDS011;13201;51.148;13.738;2023-02-28T13:20:19;27.70;;;8.75;;
25249;SDS011;13201;51.148;13.738;2023-02-28T13:22:21;13.67;;;7.30;;
25249;SDS011;13201;51.148;13.738;2023-02-28T13:27:48;11.25;;;6.25;;
25249;SDS011;13201;51.148;13.738;2023-02-28T13:35:45;12.68;;;7.10;;
25249;SDS011;13201;51.148;13.738;2023-02-28T13:38:13;17.60;;;7.97;;
25249;SDS011;13201;51.148;13.738;2023-02-28T13:40:42;14.90;;;6.53;;
25249;SDS011;13201;51.148;13.738;2023-02-28T13:43:08;15.02;;;6.85;;
25249;SDS011;13201;51.148;13.738;2023-02-28T13:45:34;15.38;;;7.50;;
25249;SDS011;13201;51.148;13.738;2023-02-28T13:48:17;15.30;;;7.22;;
25249;SDS011;13201;51.148;13.738;2023-02-28T13:50:44;17.85;;;9.27;;
25249;SDS011;13201;51.148;13.738;2023-02-28T14:06:52;15.13;;;7.13;;
25249;SDS011;13201;51.148;13.738;2023-02-28T14:18:01;17.60;;;8.27;;
25249;SDS011;13201;51.148;13.738;2023-02-28T14:20:31;17.52;;;9.05;;
25249;SDS011;13201;51.148;13.738;2023-02-28T14:23:03;19.08;;;9.52;;
25249;SDS011;13201;51.148;13.738;2023-02-28T14:28:56;17.25;;;9.25;;
25249;SDS011;13201;51.148;13.738;2023-02-28T14:37:19;16.50;;;7.78;;
25249;SDS011;13201;51.148;13.738;2023-02-28T14:39:50;13.15;;;7.60;;
25249;SDS011;13201;51.148;13.738;2023-02-28T14:42:30;15.35;;;6.63;;
25249;SDS011;13201;51.148;13.738;2023-02-28T14:45:20;12.88;;;6.75;;
25249;SDS011;13201;51.148;13.738;2023-02-28T14:47:47;15.25;;;7.05;;
25249;SDS011;13201;51.148;13.738;2023-02-28T14:51:17;13.68;;;7.13;;
25249;SDS011;13201;51.148;13.738;2023-02-28T14:53:17;15.88;;;7.43;;
25249;SDS011;13201;51.148;13.738;2023-02-28T14:55:46;15.48;;;7.57;;
25249;SDS011;13201;51.148;13.738;2023-02-28T14:58:27;13.60;;;6.65;;
25249;SDS011;13201;51.148;13.738;2023-02-28T15:00:55;14.40;;;7.35;;
25249;SDS011;13201;51.148;13.738;2023-02-28T15:03:24;15.23;;;7.40;;
25249;SDS011;13201;51.148;13.738;2023-02-28T15:05:58;14.07;;;7.05;;
25249;SDS011;13201;51.148;13.738;2023-02-28T15:08:26;15.07;;;7.22;;
25249;SDS011;13201;51.148;13.738;2023-02-28T15:11:01;11.68;;;6.88;;
25249;SDS011;13201;51.148;13.738;2023-02-28T15:16:12;11.95;;;7.03;;
25249;SDS011;13201;51.148;13.738;2023-02-28T15:18:43;13.43;;;7.38;;
25249;SDS011;13201;51.148;13.738;2023-02-28T15:21:18;13.95;;;7.78;;
25249;SDS011;13201;51.148;13.738;2023-02-28T15:23:54;14.18;;;7.35;;
25249;SDS011;13201;51.148;13.738;2023-02-28T15:26:32;13.68;;;6.88;;
25249;SDS011;13201;51.148;13.738;2023-02-28T15:29:01;12.95;;;6.97;;
25249;SDS011;13201;51.148;13.738;2023-02-28T15:31:41;18.30;;;7.43;;
25249;SDS011;13201;51.148;13.738;2023-02-28T15:34:33;12.98;;;7.07;;
25249;SDS011;13201;51.148;13.738;2023-02-28T15:36:58;12.70;;;6.88;;
25249;SDS011;13201;51.148;13.738;2023-02-28T15:39:25;15.32;;;6.68;;
25249;SDS011;13201;51.148;13.738;2023-02-28T15:41:59;17.17;;;7.05;;
25249;SDS011;13201;51.148;13.738;2023-02-28T15:44:42;13.70;;;7.28;;
25249;SDS011;13201;51.148;13.738;2023-02-28T15:49:49;15.68;;;7.30;;
25249;SDS011;13201;51.148;13.738;2023-02-28T15:52:16;16.20;;;7.20;;
25249;SDS011;13201;51.148;13.738;2023-02-28T15:54:46;15.10;;;6.93;;
25249;SDS011;13201;51.148;13.738;2023-02-28T15:57:13;14.38;;;7.00;;
25249;SDS011;13201;51.148;13.738;2023-02-28T15:59:51;14.57;;;7.18;;
25249;SDS011;13201;51.148;13.738;2023-02-28T16:02:35;13.90;;;7.63;;
25249;SDS011;13201;51.148;13.738;2023-02-28T16:07:34;14.07;;;7.07;;
25249;SDS011;13201;51.148;13.738;2023-02-28T16:10:01;15.35;;;7.82;;
25249;SDS011;13201;51.148;13.738;2023-02-28T16:12:27;17.47;;;8.20;;
25249;SDS011;13201;51.148;13.738;2023-02-28T16:14:56;18.58;;;8.73;;
25249;SDS011;13201;51.148;13.738;2023-02-28T16:17:27;18.50;;;9.13;;
25249;SDS011;13201;51.148;13.738;2023-02-28T16:19:58;14.77;;;7.85;;
25249;SDS011;13201;51.148;13.738;2023-02-28T16:22:24;13.38;;;7.38;;
25249;SDS011;13201;51.148;13.738;2023-02-28T16:24:51;18.20;;;8.02;;
25249;SDS011;13201;51.148;13.738;2023-02-28T16:29:50;13.90;;;7.57;;
25249;SDS011;13201;51.148;13.738;2023-02-28T16:32:15;15.70;;;8.15;;
25249;SDS011;13201;51.148;13.738;2023-02-28T16:34:42;14.90;;;9.15;;
25249;SDS011;13201;51.148;13.738;2023-02-28T16:37:12;21.05;;;10.18;;
25249;SDS011;13201;51.148;13.738;2023-02-28T16:39:39;15.43;;;8.77;;
25249;SDS011;13201;51.148;13.738;2023-02-28T16:42:06;16.65;;;9.68;;
25249;SDS011;13201;51.148;13.738;2023-02-28T16:44:35;12.73;;;8.10;;
25249;SDS011;13201;51.148;13.738;2023-02-28T16:47:02;13.82;;;7.55;;
25249;SDS011;13201;51.148;13.738;2023-02-28T16:49:29;11.48;;;6.88;;
25249;SDS011;13201;51.148;13.738;2023-02-28T16:51:54;11.25;;;6.75;;
25249;SDS011;13201;51.148;13.738;2023-02-28T16:54:20;14.85;;;7.30;;
25249;SDS011;13201;51.148;13.738;2023-02-28T16:56:46;14.27;;;7.82;;
25249;SDS011;13201;51.148;13.738;2023-02-28T16:59:13;14.68;;;8.15;;
25249;SDS011;13201;51.148;13.738;2023-02-28T17:01:43;18.80;;;10.10;;
25249;SDS011;13201;51.148;13.738;2023-02-28T17:04:10;20.75;;;10.57;;
25249;SDS011;13201;51.148;13.738;2023-02-28T17:06:37;21.50;;;11.25;;
25249;SDS011;13201;51.148;13.738;2023-02-28T17:09:02;19.13;;;9.60;;
25249;SDS011;13201;51.148;13.738;2023-02-28T17:11:29;20.58;;;10.30;;
25249;SDS011;13201;51.148;13.738;2023-02-28T17:13:54;15.52;;;8.07;;
25249;SDS011;13201;51.148;13.738;2023-02-28T17:16:31;17.42;;;7.72;;
25249;SDS011;13201;51.148;13.738;2023-02-28T17:18:59;15.65;;;7.97;;
25249;SDS011;13201;51.148;13.738;2023-02-28T17:21:26;16.70;;;8.00;;
25249;SDS011;13201;51.148;13.738;2023-02-28T17:23:53;30.73;;;14.35;;
25249;SDS011;13201;51.148;13.738;2023-02-28T17:26:19;15.40;;;7.78;;
25249;SDS011;13201;51.148;13.738;2023-02-28T17:28:46;16.73;;;8.50;;
25249;SDS011;13201;51.148;13.738;2023-02-28T17:31:13;15.02;;;8.15;;
25249;SDS011;13201;51.148;13.738;2023-02-28T17:33:39;18.25;;;8.77;;
25249;SDS011;13201;51.148;13.738;2023-02-28T17:36:05;16.38;;;8.48;;
25249;SDS011;13201;51.148;13.738;2023-02-28T17:38:31;19.92;;;9.75;;
25249;SDS011;13201;51.148;13.738;2023-02-28T17:40:57;16.92;;;8.13;;
25249;SDS011;13201;51.148;13.738;2023-02-28T17:43:23;17.55;;;8.18;;
25249;SDS011;13201;51.148;13.738;2023-02-28T17:45:50;18.33;;;9.40;;
25249;SDS011;13201;51.148;13.738;2023-02-28T17:48:16;16.35;;;8.10;;
25249;SDS011;13201;51.148;13.738;2023-02-28T17:50:42;17.42;;;8.80;;
25249;SDS011;13201;51.148;13.738;2023-02-28T17:53:08;19.70;;;9.05;;
25249;SDS011;13201;51.148;13.738;2023-02-28T17:55:34;19.67;;;8.88;;
25249;SDS011;13201;51.148;13.738;2023-02-28T17:58:01;17.03;;;8.23;;
25249;SDS011;13201;51.148;13.738;2023-02-28T18:00:28;14.10;;;7.70;;
25249;SDS011;13201;51.148;13.738;2023-02-28T18:02:54;19.17;;;7.70;;